Bent, New Mexico
Current Conditions -  °F | °C
As of 5:16 PM on Monday 20 Oct 2014 (Local Time) from KHMN Reporting Station
Drizzle Drizzle  
Wind Chill: 63°   Ceiling: 6000
Heat Index: 63°   Visibility: 10mi
Dew Point: 57°   Wind: 8mph
Humidity: 82%   Direction: 110°ESE
Pressure: 30.06"   Gusts: NA
Location:  33.16°N, 105.86°W
Report Text: KHMN 202316Z AUTO 11007KT 10SM -DZ BKN060 17/14 A3006 RMK AO2 LTG DSNT NW
Loading
Personal Weather Stations






























Interactive Weather Map New forecast layout! Learn more

10-Day Weather Forecast

Advertisements
Track Severe Weather on mobile